Time;durP1;ratioP1;P1;durP2;ratioP2;P2;SDS_P1;SDS_P2;PMS_P1;PMS_P2;Temp;Humidity;BMP_temperature;BMP_pressure;BME280_temperature;BME280_humidity;BME280_pressure;Samples;Min_cycle;Max_cycle;Signal;HPM_P1;HPM_P2
2022/05/16 00:00:08;;;;;;;2.95;2.03;;;;;;;;;;4947079;29;20211;-59
2022/05/16 00:02:35;;;;;;;1.80;1.70;;;;;;;;;;4944346;29;20269;-60
2022/05/16 00:05:02;;;;;;;2.03;1.88;;;;;;;;;;4946930;29;20681;-59
2022/05/16 00:07:29;;;;;;;2.38;1.73;;;;;;;;;;4947404;29;20249;-59
2022/05/16 00:09:56;;;;;;;3.13;1.75;;;;;;;;;;4946677;29;20496;-59
2022/05/16 00:12:23;;;;;;;2.90;2.10;;;;;;;;;;4946979;29;20218;-59
2022/05/16 00:14:50;;;;;;;2.95;1.95;;;;;;;;;;4946737;29;20223;-59
2022/05/16 00:17:19;;;;;;;1.67;1.58;;;;;;;;;;4946038;29;20574;-59
2022/05/16 00:19:46;;;;;;;1.80;1.70;;;;;;;;;;4946692;29;20203;-59
2022/05/16 00:22:13;;;;;;;2.47;2.28;;;;;;;;;;4946437;29;20584;-58
2022/05/16 00:24:41;;;;;;;1.92;1.80;;;;;;;;;;4946304;28;20309;-58
2022/05/16 00:27:08;;;;;;;1.77;1.67;;;;;;;;;;4946682;29;20215;-58
2022/05/16 00:29:35;;;;;;;2.08;2.00;;;;;;;;;;4946655;29;20656;-59
2022/05/16 00:32:02;;;;;;;1.77;1.70;;;;;;;;;;4946608;29;20223;-59
2022/05/16 00:34:31;;;;;;;6.05;2.10;;;;;;;;;;4946766;29;20234;-59
2022/05/16 00:36:58;;;;;;;1.33;1.33;;;;;;;;;;4945248;28;20269;-59
2022/05/16 00:39:25;;;;;;;6.30;2.28;;;;;;;;;;4950275;28;20274;-59
2022/05/16 00:41:52;;;;;;;2.05;1.95;;;;;;;;;;4950330;29;20211;-58
2022/05/16 00:44:20;;;;;;;2.22;1.90;;;;;;;;;;4950675;29;20808;-59
2022/05/16 00:46:48;;;;;;;2.17;2.08;;;;;;;;;;4949668;29;20207;-59
2022/05/16 00:49:18;;;;;;;2.00;1.90;;;;;;;;;;4950245;29;20207;-59
2022/05/16 00:51:49;;;;;;;2.08;1.90;;;;;;;;;;4950512;29;20681;-59
2022/05/16 00:54:18;;;;;;;3.90;2.20;;;;;;;;;;4950119;28;20238;-59
2022/05/16 00:56:46;;;;;;;1.90;1.80;;;;;;;;;;4956482;28;20717;-58
2022/05/16 00:59:14;;;;;;;1.80;1.80;;;;;;;;;;4955495;28;20238;-59
2022/05/16 01:07:13;;;;;;;2.20;2.10;;;;;;;;;;4949962;29;20226;-59
2022/05/16 01:09:40;;;;;;;4.85;2.10;;;;;;;;;;4946099;29;20380;-59
2022/05/16 01:12:07;;;;;;;2.08;2.00;;;;;;;;;;4950224;29;20257;-59
2022/05/16 01:14:46;;;;;;;4.30;2.30;;;;;;;;;;4949795;29;20238;-59
2022/05/16 01:17:13;;;;;;;2.20;1.90;;;;;;;;;;4949855;29;20662;-59
2022/05/16 01:19:40;;;;;;;2.13;2.03;;;;;;;;;;4949735;29;20257;-59
2022/05/16 01:22:08;;;;;;;3.50;2.03;;;;;;;;;;4949761;29;20211;-60
2022/05/16 01:24:37;;;;;;;2.55;1.73;;;;;;;;;;4949589;28;20235;-59
2022/05/16 01:27:04;;;;;;;2.38;2.28;;;;;;;;;;4950590;29;20215;-59
2022/05/16 01:29:31;;;;;;;1.70;1.60;;;;;;;;;;4949505;29;20210;-59
2022/05/16 01:31:58;;;;;;;1.90;1.75;;;;;;;;;;4950064;29;20765;-59
2022/05/16 01:34:25;;;;;;;2.30;2.10;;;;;;;;;;4949459;29;20286;-59
2022/05/16 01:36:52;;;;;;;2.10;1.90;;;;;;;;;;4950037;29;20210;-59
2022/05/16 01:39:19;;;;;;;1.88;1.75;;;;;;;;;;4949952;29;20203;-59
2022/05/16 01:41:48;;;;;;;2.28;2.17;;;;;;;;;;4949766;29;20203;-60
2022/05/16 01:44:15;;;;;;;2.80;1.88;;;;;;;;;;4949346;29;20211;-59
2022/05/16 01:46:45;;;;;;;2.28;2.10;;;;;;;;;;4949537;29;20203;-59
2022/05/16 01:49:12;;;;;;;4.78;2.00;;;;;;;;;;4949999;29;20222;-59
2022/05/16 01:51:40;;;;;;;2.28;2.10;;;;;;;;;;4949963;29;20212;-59
2022/05/16 01:54:07;;;;;;;2.15;2.03;;;;;;;;;;4949511;28;20852;-59
2022/05/16 01:56:35;;;;;;;3.00;2.30;;;;;;;;;;4949192;29;20207;-59
2022/05/16 01:59:04;;;;;;;2.13;2.03;;;;;;;;;;4949094;29;20218;-59
2022/05/16 02:01:31;;;;;;;1.92;1.83;;;;;;;;;;4949634;29;20689;-59
2022/05/16 02:03:58;;;;;;;2.05;1.88;;;;;;;;;;4949277;29;20211;-59
2022/05/16 02:06:25;;;;;;;2.55;1.98;;;;;;;;;;4947897;29;20266;-59
2022/05/16 02:08:52;;;;;;;2.13;1.85;;;;;;;;;;4949050;29;20335;-59
2022/05/16 02:11:19;;;;;;;2.45;2.25;;;;;;;;;;4948930;29;20215;-59
2022/05/16 02:13:47;;;;;;;2.40;2.20;;;;;;;;;;4948922;29;20760;-59
2022/05/16 02:16:15;;;;;;;2.72;2.10;;;;;;;;;;4948503;29;20305;-59
2022/05/16 02:18:42;;;;;;;4.22;2.00;;;;;;;;;;4949271;29;20211;-59
2022/05/16 02:26:39;;;;;;;2.65;1.67;;;;;;;;;;4952007;29;20282;-59
2022/05/16 02:29:06;;;;;;;3.80;2.00;;;;;;;;;;4952493;29;20213;-59
2022/05/16 02:31:34;;;;;;;1.60;1.60;;;;;;;;;;4952431;29;20218;-59
2022/05/16 02:34:01;;;;;;;1.98;1.88;;;;;;;;;;4951619;29;20215;-59
2022/05/16 02:36:28;;;;;;;2.70;1.92;;;;;;;;;;4952276;29;20738;-60
2022/05/16 02:38:55;;;;;;;2.67;2.22;;;;;;;;;;4952338;29;20203;-59
2022/05/16 02:41:22;;;;;;;4.95;1.90;;;;;;;;;;4952668;29;20253;-59
2022/05/16 02:43:49;;;;;;;2.80;1.77;;;;;;;;;;4952511;29;20247;-59
2022/05/16 02:46:16;;;;;;;3.03;1.70;;;;;;;;;;4955280;28;20206;-60
2022/05/16 02:48:48;;;;;;;1.67;1.67;;;;;;;;;;4954678;28;20663;-60
2022/05/16 02:51:15;;;;;;;2.30;2.10;;;;;;;;;;4952509;29;20199;-60
2022/05/16 02:53:42;;;;;;;1.88;1.83;;;;;;;;;;4951762;28;20584;-60
2022/05/16 02:56:09;;;;;;;1.88;1.73;;;;;;;;;;4952657;29;20238;-60
2022/05/16 02:58:36;;;;;;;2.10;1.88;;;;;;;;;;4951621;29;20740;-60
2022/05/16 03:01:03;;;;;;;3.38;2.03;;;;;;;;;;4952639;29;20215;-60
2022/05/16 03:03:30;;;;;;;2.40;2.20;;;;;;;;;;4951964;29;20254;-60
2022/05/16 03:05:58;;;;;;;4.13;2.00;;;;;;;;;;4951950;29;20231;-60
2022/05/16 03:08:26;;;;;;;2.88;2.10;;;;;;;;;;4951488;29;20652;-60
2022/05/16 03:10:53;;;;;;;4.35;2.13;;;;;;;;;;4952355;29;20211;-59
2022/05/16 03:13:20;;;;;;;1.80;1.70;;;;;;;;;;4952305;29;20682;-60
2022/05/16 03:15:47;;;;;;;9.77;2.40;;;;;;;;;;4951326;29;20223;-59
2022/05/16 03:18:14;;;;;;;2.35;2.10;;;;;;;;;;4952420;29;20266;-59
2022/05/16 03:20:41;;;;;;;2.08;1.67;;;;;;;;;;4951157;29;20215;-59
2022/05/16 03:23:09;;;;;;;2.35;2.15;;;;;;;;;;4952380;29;20223;-60
2022/05/16 03:25:36;;;;;;;2.28;2.03;;;;;;;;;;4949863;28;20211;-60
2022/05/16 03:28:03;;;;;;;3.28;2.00;;;;;;;;;;4951923;29;20211;-59
2022/05/16 03:30:30;;;;;;;1.90;1.83;;;;;;;;;;4950060;29;20218;-60
2022/05/16 03:32:57;;;;;;;2.28;1.70;;;;;;;;;;4948886;28;20207;-60
2022/05/16 03:35:24;;;;;;;1.88;1.85;;;;;;;;;;4950900;29;20227;-60
2022/05/16 03:37:51;;;;;;;4.30;2.20;;;;;;;;;;4949101;29;20674;-60
2022/05/16 03:43:05;;;;;;;2.97;1.90;;;;;;;;;;4949657;29;20258;-60
2022/05/16 03:45:32;;;;;;;2.13;1.60;;;;;;;;;;4950486;29;20199;-59
2022/05/16 03:47:59;;;;;;;2.10;2.00;;;;;;;;;;4948465;29;20214;-59
2022/05/16 03:50:26;;;;;;;2.45;2.17;;;;;;;;;;4949073;29;20243;-59
2022/05/16 03:52:53;;;;;;;2.40;2.30;;;;;;;;;;4948467;29;20725;-60
2022/05/16 03:55:22;;;;;;;2.75;2.20;;;;;;;;;;4949711;28;20242;-60
2022/05/16 03:57:49;;;;;;;3.10;2.70;;;;;;;;;;4949129;29;20207;-60
2022/05/16 04:00:17;;;;;;;4.00;2.38;;;;;;;;;;4947538;29;20199;-60
2022/05/16 04:02:45;;;;;;;2.65;2.45;;;;;;;;;;4949480;29;20225;-60
2022/05/16 04:05:15;;;;;;;2.85;2.20;;;;;;;;;;4947000;29;20202;-60
2022/05/16 04:07:42;;;;;;;2.50;2.30;;;;;;;;;;4949282;29;20604;-60
2022/05/16 04:10:09;;;;;;;2.55;2.03;;;;;;;;;;4949794;29;20314;-60
2022/05/16 04:12:38;;;;;;;2.50;2.40;;;;;;;;;;4949778;29;20222;-61
2022/05/16 04:15:06;;;;;;;2.20;1.98;;;;;;;;;;4949008;29;20229;-61
2022/05/16 04:17:33;;;;;;;2.90;2.22;;;;;;;;;;4949158;29;20208;-60
2022/05/16 04:20:01;;;;;;;2.70;2.50;;;;;;;;;;4949514;29;20211;-61
2022/05/16 04:22:28;;;;;;;5.68;2.40;;;;;;;;;;4950827;29;20207;-60
2022/05/16 04:24:55;;;;;;;2.25;2.08;;;;;;;;;;4949065;28;20215;-60
2022/05/16 04:27:22;;;;;;;2.25;2.03;;;;;;;;;;4949854;29;20211;-60
2022/05/16 04:29:50;;;;;;;1.85;1.75;;;;;;;;;;4949614;29;20230;-60
2022/05/16 04:32:17;;;;;;;2.40;1.90;;;;;;;;;;4949056;29;20199;-61
2022/05/16 04:34:44;;;;;;;1.92;1.92;;;;;;;;;;4949374;29;20932;-61
2022/05/16 04:37:11;;;;;;;3.10;2.30;;;;;;;;;;4948277;29;20203;-60
2022/05/16 04:39:38;;;;;;;3.47;2.03;;;;;;;;;;4948599;29;20203;-60
2022/05/16 04:44:52;;;;;;;2.40;2.17;;;;;;;;;;4949873;29;20214;-60
2022/05/16 04:47:19;;;;;;;2.28;2.13;;;;;;;;;;4949416;29;20207;-58
2022/05/16 04:49:46;;;;;;;3.35;2.17;;;;;;;;;;4949721;29;20207;-58
2022/05/16 04:52:13;;;;;;;2.45;2.25;;;;;;;;;;4948799;29;20258;-58
2022/05/16 04:54:40;;;;;;;2.80;2.60;;;;;;;;;;4947519;29;20218;-59
2022/05/16 04:57:08;;;;;;;1.80;1.70;;;;;;;;;;4949400;29;20290;-59
2022/05/16 04:59:35;;;;;;;1.90;1.80;;;;;;;;;;4949365;29;20218;-60
2022/05/16 05:02:03;;;;;;;3.15;2.38;;;;;;;;;;4949648;28;20375;-59
2022/05/16 05:04:30;;;;;;;4.47;2.80;;;;;;;;;;4946938;29;20203;-59
2022/05/16 05:06:58;;;;;;;2.05;1.80;;;;;;;;;;4948756;29;20262;-59
2022/05/16 05:09:25;;;;;;;3.33;2.40;;;;;;;;;;4947878;29;20326;-59
2022/05/16 05:14:39;;;;;;;2.45;2.25;;;;;;;;;;4949375;29;20330;-59
2022/05/16 05:17:09;;;;;;;2.22;2.13;;;;;;;;;;4949124;29;20211;-60
2022/05/16 05:19:39;;;;;;;2.38;2.17;;;;;;;;;;4949293;29;20257;-59
2022/05/16 05:22:06;;;;;;;6.43;2.00;;;;;;;;;;4949364;29;20230;-60
2022/05/16 05:24:33;;;;;;;2.20;2.10;;;;;;;;;;4949369;28;20223;-60
2022/05/16 05:27:01;;;;;;;3.30;2.65;;;;;;;;;;4948879;28;20211;-66
2022/05/16 05:29:28;;;;;;;4.72;2.55;;;;;;;;;;4952252;28;20211;-60
2022/05/16 05:31:55;;;;;;;3.85;2.38;;;;;;;;;;4948789;29;20274;-61
2022/05/16 05:34:23;;;;;;;2.58;2.38;;;;;;;;;;4946985;29;20207;-60
2022/05/16 05:36:50;;;;;;;3.72;2.40;;;;;;;;;;4951433;28;20731;-60
2022/05/16 05:39:18;;;;;;;3.05;2.50;;;;;;;;;;4953601;28;20305;-61
2022/05/16 05:41:45;;;;;;;5.18;2.45;;;;;;;;;;4948582;29;20741;-61
2022/05/16 05:44:13;;;;;;;2.00;1.90;;;;;;;;;;4948875;29;20231;-60
2022/05/16 05:46:41;;;;;;;4.10;2.72;;;;;;;;;;4948887;29;20285;-61
2022/05/16 05:49:09;;;;;;;2.78;2.50;;;;;;;;;;4948040;29;20211;-60
2022/05/16 05:51:38;;;;;;;3.65;2.75;;;;;;;;;;4949002;29;20665;-61
2022/05/16 05:54:05;;;;;;;2.50;2.30;;;;;;;;;;4948112;28;20242;-61
2022/05/16 05:56:33;;;;;;;2.25;2.10;;;;;;;;;;4951172;29;20591;-60
2022/05/16 05:59:00;;;;;;;2.50;2.40;;;;;;;;;;4952362;29;20302;-61
2022/05/16 06:01:27;;;;;;;2.88;1.90;;;;;;;;;;4951874;29;20825;-61
2022/05/16 06:03:55;;;;;;;2.40;2.20;;;;;;;;;;4951783;29;20218;-60
2022/05/16 06:06:22;;;;;;;9.13;2.53;;;;;;;;;;4944563;29;20208;-61
2022/05/16 06:08:50;;;;;;;2.97;2.83;;;;;;;;;;4949582;28;20305;-60
2022/05/16 06:11:17;;;;;;;4.05;2.50;;;;;;;;;;4952363;29;20214;-61
2022/05/16 06:13:44;;;;;;;2.47;2.28;;;;;;;;;;4951617;29;20204;-61
2022/05/16 06:16:11;;;;;;;2.67;2.47;;;;;;;;;;4951902;29;20322;-61
2022/05/16 06:18:38;;;;;;;2.72;2.53;;;;;;;;;;4949452;29;20684;-60
2022/05/16 06:21:06;;;;;;;4.78;2.55;;;;;;;;;;4952433;29;20215;-60
2022/05/16 06:23:33;;;;;;;2.38;2.20;;;;;;;;;;4954068;28;20273;-61
2022/05/16 06:26:01;;;;;;;1.80;1.80;;;;;;;;;;4952394;29;20262;-61
2022/05/16 06:28:32;;;;;;;4.85;2.10;;;;;;;;;;4951898;29;20207;-60
2022/05/16 06:30:59;;;;;;;5.18;2.33;;;;;;;;;;4952375;29;20302;-60
2022/05/16 06:33:28;;;;;;;2.00;2.00;;;;;;;;;;4952054;29;20218;-61
2022/05/16 06:35:55;;;;;;;3.38;2.58;;;;;;;;;;4949577;29;20230;-61
2022/05/16 06:38:23;;;;;;;3.63;2.30;;;;;;;;;;4952133;29;20213;-60
2022/05/16 06:40:51;;;;;;;2.42;2.22;;;;;;;;;;4950574;29;20302;-61
2022/05/16 06:43:20;;;;;;;2.40;2.20;;;;;;;;;;4952065;29;20210;-61
2022/05/16 06:45:47;;;;;;;2.30;2.20;;;;;;;;;;4951482;29;20824;-61
2022/05/16 06:48:15;;;;;;;2.20;2.10;;;;;;;;;;4948621;29;20781;-60
2022/05/16 06:50:43;;;;;;;2.30;2.15;;;;;;;;;;4957410;28;20267;-61
2022/05/16 06:53:12;;;;;;;2.90;2.55;;;;;;;;;;4951494;29;20453;-61
2022/05/16 06:55:39;;;;;;;2.15;2.05;;;;;;;;;;4953746;28;20254;-61
2022/05/16 06:58:06;;;;;;;2.85;2.45;;;;;;;;;;4959461;28;20608;-61
2022/05/16 07:00:34;;;;;;;2.85;2.55;;;;;;;;;;4958574;28;20221;-60
2022/05/16 07:03:02;;;;;;;2.45;2.20;;;;;;;;;;4950098;29;20199;-60
2022/05/16 07:05:29;;;;;;;2.58;2.38;;;;;;;;;;4951144;28;20273;-61
2022/05/16 07:07:57;;;;;;;2.22;2.13;;;;;;;;;;4957749;28;20305;-60
2022/05/16 07:10:24;;;;;;;2.60;2.40;;;;;;;;;;4956190;28;20681;-59
2022/05/16 07:12:51;;;;;;;5.75;2.88;;;;;;;;;;4953530;28;20298;-60
2022/05/16 07:15:19;;;;;;;2.35;2.25;;;;;;;;;;4956595;28;20674;-60
2022/05/16 07:17:48;;;;;;;2.30;2.17;;;;;;;;;;4952464;28;20210;-60
2022/05/16 07:20:15;;;;;;;4.80;2.72;;;;;;;;;;4951111;29;20753;-61
2022/05/16 07:22:42;;;;;;;2.83;2.60;;;;;;;;;;4951251;29;20203;-60
2022/05/16 07:25:11;;;;;;;2.38;2.28;;;;;;;;;;4950872;28;20215;-61
2022/05/16 07:30:24;;;;;;;2.78;2.60;;;;;;;;;;4951098;29;20222;-61
2022/05/16 07:32:53;;;;;;;2.78;2.58;;;;;;;;;;4949600;29;20268;-64
2022/05/16 07:35:23;;;;;;;4.50;2.42;;;;;;;;;;4949396;28;20202;-60
2022/05/16 07:37:53;;;;;;;3.25;2.35;;;;;;;;;;4950278;28;20234;-59
2022/05/16 07:40:21;;;;;;;4.68;2.60;;;;;;;;;;4950610;29;20214;-59
2022/05/16 07:42:48;;;;;;;2.65;2.47;;;;;;;;;;4950316;29;20554;-58
2022/05/16 07:45:15;;;;;;;4.15;2.20;;;;;;;;;;4949839;28;20674;-59
2022/05/16 07:47:42;;;;;;;3.33;2.45;;;;;;;;;;4950718;29;20351;-59
2022/05/16 07:50:10;;;;;;;2.35;2.25;;;;;;;;;;4949520;29;20219;-62
2022/05/16 07:52:38;;;;;;;2.92;2.58;;;;;;;;;;4950728;29;20581;-60
2022/05/16 07:55:06;;;;;;;2.97;2.67;;;;;;;;;;4950250;28;20273;-61
2022/05/16 07:57:33;;;;;;;2.78;2.67;;;;;;;;;;4950098;29;20230;-60
2022/05/16 08:00:00;;;;;;;2.72;2.38;;;;;;;;;;4949615;29;20211;-60
2022/05/16 08:02:27;;;;;;;2.50;2.30;;;;;;;;;;4950939;29;20276;-61
2022/05/16 08:04:54;;;;;;;2.90;2.40;;;;;;;;;;4949809;29;20217;-61
2022/05/16 08:07:23;;;;;;;9.50;2.50;;;;;;;;;;4950533;29;20598;-60
2022/05/16 08:12:36;;;;;;;2.83;2.63;;;;;;;;;;4949676;29;20209;-60
2022/05/16 08:15:04;;;;;;;2.20;2.10;;;;;;;;;;4950078;29;20203;-60
2022/05/16 08:17:31;;;;;;;2.50;2.33;;;;;;;;;;4949984;28;20223;-61
2022/05/16 08:19:58;;;;;;;2.35;2.25;;;;;;;;;;4949255;29;20226;-61
2022/05/16 08:22:30;;;;;;;3.40;1.98;;;;;;;;;;4949365;29;20593;-60
2022/05/16 08:24:57;;;;;;;3.63;2.20;;;;;;;;;;4954341;28;20230;-60
2022/05/16 08:27:24;;;;;;;2.40;2.30;;;;;;;;;;4948605;29;20286;-60
2022/05/16 08:29:51;;;;;;;3.03;2.13;;;;;;;;;;4950487;29;20670;-60
2022/05/16 08:32:20;;;;;;;3.75;2.55;;;;;;;;;;4950072;29;20221;-59
2022/05/16 08:34:47;;;;;;;2.03;1.92;;;;;;;;;;4950522;29;20293;-59
2022/05/16 08:40:03;;;;;;;2.40;2.30;;;;;;;;;;4948948;29;20206;-61
2022/05/16 08:42:36;;;;;;;5.55;2.10;;;;;;;;;;4959309;28;20219;-60
2022/05/16 08:45:06;;;;;;;3.13;3.03;;;;;;;;;;4956974;28;20203;-61
2022/05/16 08:47:41;;;;;;;2.05;1.95;;;;;;;;;;4956587;28;20199;-62
2022/05/16 08:50:11;;;;;;;3.92;2.30;;;;;;;;;;4953644;28;20220;-62
2022/05/16 08:52:40;;;;;;;2.28;2.17;;;;;;;;;;4962112;28;20648;-64
2022/05/16 08:55:13;;;;;;;2.80;2.42;;;;;;;;;;4960307;28;20281;-62
2022/05/16 08:57:41;;;;;;;2.83;2.53;;;;;;;;;;4953585;28;20285;-63
2022/05/16 09:00:10;;;;;;;4.47;2.50;;;;;;;;;;4959882;28;20270;-65
2022/05/16 09:02:40;;;;;;;2.17;2.03;;;;;;;;;;4949657;29;20254;-64
2022/05/16 09:05:11;;;;;;;2.58;2.47;;;;;;;;;;4950444;29;20206;-65
2022/05/16 09:07:41;;;;;;;2.50;2.28;;;;;;;;;;4949334;29;20227;-61
2022/05/16 09:10:11;;;;;;;4.32;2.55;;;;;;;;;;4947124;29;20655;-61
2022/05/16 09:12:43;;;;;;;3.08;2.55;;;;;;;;;;4949722;29;20211;-62
2022/05/16 09:15:14;;;;;;;2.53;2.33;;;;;;;;;;4946552;28;20267;-59
2022/05/16 09:17:49;;;;;;;3.40;2.30;;;;;;;;;;4949070;28;20286;-60
2022/05/16 09:20:22;;;;;;;2.95;2.30;;;;;;;;;;4954381;28;20891;-59
2022/05/16 09:22:53;;;;;;;5.57;3.17;;;;;;;;;;4961906;28;20292;-59
2022/05/16 09:25:23;;;;;;;3.63;2.55;;;;;;;;;;4960094;28;20210;-59
2022/05/16 09:30:37;;;;;;;3.85;2.60;;;;;;;;;;4953691;28;20206;-59
2022/05/16 09:33:07;;;;;;;3.03;2.70;;;;;;;;;;4953396;29;21170;-60
2022/05/16 09:35:41;;;;;;;3.78;2.53;;;;;;;;;;4951379;29;20199;-59
2022/05/16 09:38:08;;;;;;;2.97;2.67;;;;;;;;;;4954348;29;20282;-59
2022/05/16 09:40:37;;;;;;;2.72;2.50;;;;;;;;;;4953558;29;20207;-60
2022/05/16 09:43:08;;;;;;;2.50;2.30;;;;;;;;;;4951867;29;20210;-59
2022/05/16 09:45:36;;;;;;;3.03;2.72;;;;;;;;;;4953713;29;20239;-59
2022/05/16 09:48:15;;;;;;;2.65;2.55;;;;;;;;;;4954558;28;20202;-59
2022/05/16 09:50:42;;;;;;;4.05;2.53;;;;;;;;;;4963305;28;20633;-62
2022/05/16 09:53:13;;;;;;;3.60;2.70;;;;;;;;;;4949305;29;20207;-59
2022/05/16 09:55:46;;;;;;;5.85;2.20;;;;;;;;;;4949201;29;20207;-60
2022/05/16 09:58:16;;;;;;;2.22;2.00;;;;;;;;;;4959115;28;20235;-59
2022/05/16 10:00:45;;;;;;;6.68;2.92;;;;;;;;;;4969253;28;20214;-59
2022/05/16 10:03:22;;;;;;;2.35;2.15;;;;;;;;;;4944854;28;20285;-60
2022/05/16 10:05:51;;;;;;;2.75;2.60;;;;;;;;;;4949097;29;20206;-60
2022/05/16 10:08:25;;;;;;;4.95;2.60;;;;;;;;;;4953368;28;20251;-60
2022/05/16 10:10:54;;;;;;;3.08;2.88;;;;;;;;;;4960252;28;20651;-60
2022/05/16 10:13:21;;;;;;;2.35;2.20;;;;;;;;;;4948551;29;20211;-60
2022/05/16 10:15:51;;;;;;;2.53;2.28;;;;;;;;;;4949271;29;20207;-60
2022/05/16 10:18:21;;;;;;;5.68;2.80;;;;;;;;;;4955251;28;20233;-60
2022/05/16 10:20:50;;;;;;;2.35;2.25;;;;;;;;;;4968754;28;20206;-60
2022/05/16 10:23:21;;;;;;;2.50;2.30;;;;;;;;;;4956193;28;20278;-63
2022/05/16 10:25:49;;;;;;;5.78;2.30;;;;;;;;;;4951942;28;20249;-61
2022/05/16 10:28:18;;;;;;;2.53;2.38;;;;;;;;;;4952392;28;20262;-61
2022/05/16 10:33:33;;;;;;;2.83;2.65;;;;;;;;;;4948513;29;20238;-61
2022/05/16 10:36:01;;;;;;;6.40;2.45;;;;;;;;;;4948754;29;20227;-62
2022/05/16 10:38:32;;;;;;;2.15;2.15;;;;;;;;;;4948186;29;20230;-61
2022/05/16 10:41:01;;;;;;;3.15;2.63;;;;;;;;;;4947895;28;21415;-61
2022/05/16 10:43:35;;;;;;;4.78;2.25;;;;;;;;;;4948708;28;20215;-63
2022/05/16 10:46:03;;;;;;;3.15;2.03;;;;;;;;;;4948687;29;20214;-66
2022/05/16 10:48:39;;;;;;;2.40;2.30;;;;;;;;;;4948015;29;20203;-63
2022/05/16 10:51:10;;;;;;;1.98;1.98;;;;;;;;;;4948450;29;20302;-64
2022/05/16 10:53:39;;;;;;;2.22;2.13;;;;;;;;;;4948266;28;20226;-64
2022/05/16 10:56:11;;;;;;;2.40;2.30;;;;;;;;;;4948713;29;20211;-63
2022/05/16 10:58:49;;;;;;;2.95;2.67;;;;;;;;;;4948507;29;20235;-64
2022/05/16 11:01:21;;;;;;;3.03;2.55;;;;;;;;;;4947845;29;20809;-64
2022/05/16 11:04:07;;;;;;;3.25;2.78;;;;;;;;;;4948519;29;20211;-64
2022/05/16 11:06:42;;;;;;;4.93;2.80;;;;;;;;;;4947972;29;20309;-63
2022/05/16 11:09:11;;;;;;;3.47;2.63;;;;;;;;;;4947425;29;20273;-62
2022/05/16 11:11:41;;;;;;;2.53;2.42;;;;;;;;;;4959706;28;20304;-61
2022/05/16 11:14:14;;;;;;;2.50;2.40;;;;;;;;;;4959269;28;20214;-62
2022/05/16 11:16:41;;;;;;;3.70;2.20;;;;;;;;;;4943270;29;20208;-63
2022/05/16 11:19:16;;;;;;;2.50;2.40;;;;;;;;;;4947974;29;20214;-60
2022/05/16 11:21:46;;;;;;;4.38;2.35;;;;;;;;;;4948039;29;20203;-61
2022/05/16 11:24:21;;;;;;;2.60;2.50;;;;;;;;;;4948082;28;20222;-60
2022/05/16 11:26:51;;;;;;;4.25;2.40;;;;;;;;;;4947942;29;20273;-60
2022/05/16 11:29:23;;;;;;;4.65;2.22;;;;;;;;;;4960074;28;20206;-61
2022/05/16 11:31:56;;;;;;;2.95;2.50;;;;;;;;;;4948244;29;20215;-60
2022/05/16 11:34:25;;;;;;;2.45;2.22;;;;;;;;;;4947903;29;20215;-60
2022/05/16 11:36:55;;;;;;;3.72;2.40;;;;;;;;;;4947872;29;20215;-61
2022/05/16 11:39:25;;;;;;;2.28;2.08;;;;;;;;;;4947469;29;20211;-60
2022/05/16 11:41:57;;;;;;;3.30;2.25;;;;;;;;;;4947196;29;20211;-61
2022/05/16 11:44:31;;;;;;;2.35;2.03;;;;;;;;;;4947548;29;20210;-59
2022/05/16 11:47:01;;;;;;;2.83;2.25;;;;;;;;;;4947788;29;20222;-59
2022/05/16 11:49:32;;;;;;;3.05;2.05;;;;;;;;;;4947453;29;20218;-59
2022/05/16 11:52:06;;;;;;;5.10;1.73;;;;;;;;;;4946952;28;20217;-59
2022/05/16 11:54:36;;;;;;;2.22;2.03;;;;;;;;;;4946893;28;20752;-59
2022/05/16 12:02:45;;;;;;;2.20;1.80;;;;;;;;;;4947445;29;20268;-59
2022/05/16 12:05:14;;;;;;;1.65;1.55;;;;;;;;;;4947184;29;20338;-61
2022/05/16 12:07:42;;;;;;;1.85;1.70;;;;;;;;;;4946696;29;20233;-62
2022/05/16 12:10:22;;;;;;;4.45;1.67;;;;;;;;;;4946396;29;20218;-61
2022/05/16 12:12:50;;;;;;;1.55;1.40;;;;;;;;;;4952530;28;20202;-62
2022/05/16 12:15:32;;;;;;;3.55;1.58;;;;;;;;;;5081942;28;20994;-60
2022/05/16 12:18:01;;;;;;;1.25;1.25;;;;;;;;;;5081807;28;20209;-60
2022/05/16 12:20:37;;;;;;;2.58;1.42;;;;;;;;;;5081267;28;20210;-62
2022/05/16 12:23:04;;;;;;;2.00;1.08;;;;;;;;;;5081578;28;20229;-64
2022/05/16 12:25:33;;;;;;;1.77;1.00;;;;;;;;;;5081780;28;20249;-63
2022/05/16 12:28:23;;;;;;;3.65;1.20;;;;;;;;;;5084708;28;20210;-64
2022/05/16 12:30:53;;;;;;;1.13;1.00;;;;;;;;;;5093621;28;20228;-63
2022/05/16 12:33:49;;;;;;;3.63;1.13;;;;;;;;;;5081745;28;20241;-64
2022/05/16 12:36:17;;;;;;;1.75;1.50;;;;;;;;;;5081056;28;20731;-63
2022/05/16 12:38:45;;;;;;;2.05;1.33;;;;;;;;;;5081288;28;20217;-64
2022/05/16 12:41:44;;;;;;;1.20;1.10;;;;;;;;;;5081001;28;20248;-64
2022/05/16 12:44:26;;;;;;;1.10;1.00;;;;;;;;;;5081412;28;20202;-63
2022/05/16 12:47:04;;;;;;;1.15;1.15;;;;;;;;;;5081691;28;20217;-63
2022/05/16 12:49:39;;;;;;;1.35;0.95;;;;;;;;;;5081145;28;20210;-62
2022/05/16 12:52:07;;;;;;;2.72;1.10;;;;;;;;;;5080050;28;20236;-62
2022/05/16 12:54:47;;;;;;;0.98;0.98;;;;;;;;;;5081017;28;20234;-63
2022/05/16 12:57:30;;;;;;;1.35;1.00;;;;;;;;;;5081432;28;20230;-61
2022/05/16 13:00:01;;;;;;;0.98;0.98;;;;;;;;;;5080885;28;20687;-62
2022/05/16 13:02:32;;;;;;;2.25;0.77;;;;;;;;;;5080973;28;20211;-62
2022/05/16 13:05:12;;;;;;;1.65;0.98;;;;;;;;;;5073699;28;20229;-62
2022/05/16 13:07:54;;;;;;;2.63;1.00;;;;;;;;;;5076098;28;20734;-62
2022/05/16 13:10:29;;;;;;;2.67;0.90;;;;;;;;;;5060133;28;20277;-61
2022/05/16 13:12:58;;;;;;;0.77;0.77;;;;;;;;;;5061032;28;20207;-64
2022/05/16 13:15:29;;;;;;;5.78;0.90;;;;;;;;;;5079112;28;20226;-60
2022/05/16 13:17:58;;;;;;;1.65;0.80;;;;;;;;;;5080480;28;20211;-61
2022/05/16 13:20:32;;;;;;;1.08;1.08;;;;;;;;;;5080564;28;20207;-61
2022/05/16 13:22:59;;;;;;;0.80;0.80;;;;;;;;;;5080739;28;20591;-62
2022/05/16 13:25:27;;;;;;;3.03;1.20;;;;;;;;;;5065090;28;20210;-61
2022/05/16 13:30:40;;;;;;;0.63;0.63;;;;;;;;;;5064420;28;20210;-61
2022/05/16 13:33:32;;;;;;;1.67;0.80;;;;;;;;;;5056180;28;20292;-63
2022/05/16 13:36:13;;;;;;;2.63;1.00;;;;;;;;;;5053958;28;20230;-62
2022/05/16 13:38:40;;;;;;;1.38;1.05;;;;;;;;;;5051771;28;20685;-62
2022/05/16 13:41:07;;;;;;;0.80;0.80;;;;;;;;;;5066349;28;20300;-62
2022/05/16 13:43:35;;;;;;;1.20;1.00;;;;;;;;;;5061933;28;20211;-61
2022/05/16 13:46:02;;;;;;;2.95;1.30;;;;;;;;;;5064104;28;20629;-62
2022/05/16 13:48:31;;;;;;;1.17;1.13;;;;;;;;;;5065464;28;20214;-62
2022/05/16 13:50:59;;;;;;;2.95;1.20;;;;;;;;;;5061617;28;20293;-62
2022/05/16 13:53:27;;;;;;;3.15;0.93;;;;;;;;;;5052712;28;20219;-62
2022/05/16 13:55:56;;;;;;;1.02;0.90;;;;;;;;;;5059223;28;20242;-61
2022/05/16 13:58:23;;;;;;;1.17;1.15;;;;;;;;;;5058296;28;20199;-63
2022/05/16 14:00:51;;;;;;;4.85;0.80;;;;;;;;;;5056948;28;20207;-63
2022/05/16 14:03:24;;;;;;;2.63;1.10;;;;;;;;;;5056995;28;20302;-63
2022/05/16 14:05:53;;;;;;;1.00;1.00;;;;;;;;;;5055621;28;20206;-62
2022/05/16 14:08:22;;;;;;;1.77;1.10;;;;;;;;;;5051488;28;20357;-62
2022/05/16 14:10:50;;;;;;;1.90;1.13;;;;;;;;;;5051037;28;20602;-63
2022/05/16 14:13:20;;;;;;;2.83;1.13;;;;;;;;;;5056139;28;20216;-63
2022/05/16 14:15:51;;;;;;;2.08;1.20;;;;;;;;;;5052477;28;20230;-63
2022/05/16 14:18:23;;;;;;;1.33;1.25;;;;;;;;;;5066047;28;20210;-63
2022/05/16 14:20:54;;;;;;;1.15;1.10;;;;;;;;;;5059504;28;20302;-62
2022/05/16 14:23:33;;;;;;;1.95;1.45;;;;;;;;;;5054487;28;20211;-62
2022/05/16 14:26:09;;;;;;;1.88;1.00;;;;;;;;;;5056418;28;20265;-62
2022/05/16 14:28:44;;;;;;;1.40;1.17;;;;;;;;;;5048640;28;20952;-64
2022/05/16 14:31:18;;;;;;;2.08;1.38;;;;;;;;;;5046134;28;21657;-64
2022/05/16 14:33:51;;;;;;;2.90;1.35;;;;;;;;;;5045875;28;20305;-64
2022/05/16 14:36:24;;;;;;;1.30;1.20;;;;;;;;;;5045323;28;20440;-64
2022/05/16 14:38:53;;;;;;;1.55;1.45;;;;;;;;;;5045994;28;20860;-64
2022/05/16 14:41:22;;;;;;;2.33;1.60;;;;;;;;;;5059317;28;20676;-63
2022/05/16 14:43:58;;;;;;;2.70;1.40;;;;;;;;;;5065118;28;20213;-64
2022/05/16 14:46:50;;;;;;;5.30;1.33;;;;;;;;;;5053468;28;20280;-64
2022/05/16 14:49:20;;;;;;;1.77;1.20;;;;;;;;;;5056710;28;20210;-63
2022/05/16 14:51:49;;;;;;;2.75;1.40;;;;;;;;;;5065541;28;20207;-64
2022/05/16 14:54:21;;;;;;;2.92;1.25;;;;;;;;;;5065217;28;20238;-64
2022/05/16 14:56:48;;;;;;;3.25;1.30;;;;;;;;;;5048375;28;20303;-64
2022/05/16 14:59:15;;;;;;;1.30;1.30;;;;;;;;;;5065811;28;20217;-64
2022/05/16 15:04:27;;;;;;;1.23;1.10;;;;;;;;;;5052749;28;20214;-62
2022/05/16 15:06:55;;;;;;;1.27;1.20;;;;;;;;;;5057183;28;20215;-63
2022/05/16 15:09:22;;;;;;;1.73;0.95;;;;;;;;;;5045951;28;20223;-65
2022/05/16 15:11:51;;;;;;;2.80;1.65;;;;;;;;;;5045777;28;20208;-63
2022/05/16 15:14:18;;;;;;;1.23;1.23;;;;;;;;;;5047039;28;20243;-63
2022/05/16 15:16:45;;;;;;;3.42;1.48;;;;;;;;;;5060761;28;20261;-62
2022/05/16 15:19:13;;;;;;;1.45;1.20;;;;;;;;;;5061026;28;20272;-62
2022/05/16 15:21:41;;;;;;;1.10;1.10;;;;;;;;;;5063494;28;20222;-64
2022/05/16 15:24:11;;;;;;;3.88;1.00;;;;;;;;;;5059779;28;20305;-62
2022/05/16 15:26:39;;;;;;;3.97;1.40;;;;;;;;;;5055130;28;20204;-62
2022/05/16 15:29:06;;;;;;;1.60;1.30;;;;;;;;;;5057389;28;20435;-63
2022/05/16 15:31:34;;;;;;;1.95;1.15;;;;;;;;;;5065126;28;20207;-62
2022/05/16 15:34:01;;;;;;;1.90;1.35;;;;;;;;;;5064287;28;20207;-62
2022/05/16 15:36:29;;;;;;;2.35;1.27;;;;;;;;;;5060032;28;20199;-63
2022/05/16 15:38:56;;;;;;;2.50;1.48;;;;;;;;;;5057079;28;20203;-62